KOCF/OCF METAR and TAF weather

Enter ICAO airport designator
Station Type Date Time Source
KOCF METAR 2024/07/23 16:51 UTC NOAA

KOCF 231651Z 13005KT 10SM BKN033 33/26 A3013 RMK AO2 LTG DSNT SW SLP203 T03280256


Station Type Date Time Source
KOCF Decoded METAR 2024/07/23 16:51 UTC NOAA

Ocala, Ocala International Airport-Jim Taylor Field, FL, United States (KOCF) 29-10N 082-13W
Jul 23, 2024 - 12:51 PM EDT / 2024.07.23 1651 UTC
Wind: from the SE (130 degrees) at 6 MPH (5 KT):0
Visibility: 10 mile(s):0
Sky conditions: mostly cloudy
Weather: Lightning observed
Temperature: 91.0 F (32.8 C)
Heat index: 105.4 F (40.8 C):1
Dew Point: 78.1 F (25.6 C)
Relative Humidity: 65%
Pressure (altimeter): 30.13 in. Hg (1020 hPa)
ob: KOCF 231651Z 13005KT 10SM BKN033 33/26 A3013 RMK AO2 LTG DSNT SW SLP203 T03280256
cycle: 17

Station Type Date Time Source
KOCF TAF UTC NOAA

Error!

Example: see airport list